createdAt,value
2018-10-19T00:06:26.913Z,14.78
2018-10-19T00:14:47.953Z,14.89
2018-10-19T00:23:09.089Z,15.14
2018-10-19T00:31:30.116Z,15.30
2018-10-19T00:39:51.120Z,15.46
2018-10-19T00:48:12.154Z,15.36
2018-10-19T00:56:33.157Z,15.39
2018-10-19T01:04:54.242Z,15.44
2018-10-19T01:13:15.262Z,15.40
2018-10-19T01:21:36.346Z,15.36
2018-10-19T01:29:57.734Z,15.29
2018-10-19T01:38:18.748Z,15.28
2018-10-19T01:46:39.745Z,15.29
2018-10-19T01:55:01.803Z,15.36
2018-10-19T02:03:22.804Z,15.37
2018-10-19T02:11:43.843Z,15.40
2018-10-19T02:20:04.859Z,15.48
2018-10-19T02:28:25.875Z,15.56
2018-10-19T02:36:46.939Z,15.50
2018-10-19T02:45:08.033Z,15.47
2018-10-19T02:53:29.057Z,15.37
2018-10-19T03:01:50.083Z,15.17
2018-10-19T03:10:12.148Z,14.85
2018-10-19T03:18:33.187Z,14.47
2018-10-19T03:26:54.229Z,14.50
2018-10-19T03:35:15.339Z,14.60
2018-10-19T03:43:36.268Z,14.60
2018-10-19T03:52:02.260Z,14.76
2018-10-19T04:00:23.283Z,14.84
2018-10-19T04:25:38.225Z,15.00
2018-10-19T04:42:25.644Z,15.10
2018-10-19T04:50:46.596Z,15.08
2018-10-19T04:59:08.013Z,15.15
2018-10-19T05:07:28.945Z,15.20
2018-10-19T05:15:50.056Z,15.22
2018-10-19T05:24:11.066Z,15.23
2018-10-19T05:32:33.132Z,15.23
2018-10-19T05:40:55.223Z,15.17
2018-10-19T05:49:20.052Z,15.16
2018-10-19T05:57:41.095Z,15.17
2018-10-19T06:06:02.094Z,15.08
2018-10-19T06:14:23.203Z,14.98
2018-10-19T06:22:44.254Z,15.00
2018-10-19T06:31:05.277Z,15.23
2018-10-19T06:39:26.416Z,15.29
2018-10-19T06:47:47.445Z,15.29
2018-10-19T06:56:08.496Z,15.44
2018-10-19T07:04:29.515Z,15.62
2018-10-19T07:12:51.623Z,15.84
2018-10-19T07:21:12.687Z,16.09
2018-10-19T07:29:34.079Z,16.31
2018-10-19T07:37:55.154Z,16.49
2018-10-19T07:46:16.152Z,16.49
2018-10-19T07:54:37.342Z,16.58
2018-10-19T08:02:58.320Z,16.60
2018-10-19T08:11:19.358Z,16.58
2018-10-19T08:19:40.348Z,16.66
2018-10-19T08:28:01.414Z,16.80
2018-10-19T08:36:22.450Z,16.81
2018-10-19T08:44:43.475Z,16.97
2018-10-19T08:53:06.719Z,17.11
2018-10-19T09:01:28.456Z,17.20
2018-10-19T09:09:49.459Z,17.18
2018-10-19T09:18:10.494Z,17.26
2018-10-19T09:26:31.492Z,17.13
2018-10-19T09:34:52.581Z,17.10
2018-10-19T09:43:13.658Z,17.11
2018-10-19T09:51:34.727Z,17.25
2018-10-19T09:59:57.858Z,17.57
2018-10-19T10:08:20.950Z,17.81
2018-10-19T10:16:41.991Z,17.88
2018-10-19T10:25:03.079Z,17.85
2018-10-19T10:33:24.106Z,18.03
2018-10-19T10:41:45.112Z,18.31
2018-10-19T10:50:06.150Z,18.44
2018-10-19T10:58:29.266Z,18.66
2018-10-19T11:06:51.315Z,18.70
2018-10-19T11:15:12.638Z,19.00
2018-10-19T11:23:37.498Z,19.40
2018-10-19T11:31:58.510Z,19.68
2018-10-19T11:40:19.559Z,20.24
2018-10-19T11:48:40.599Z,20.88
2018-10-19T11:57:01.676Z,21.44
2018-10-19T12:05:22.746Z,21.73
2018-10-19T12:13:43.775Z,22.42
2018-10-19T12:22:05.818Z,23.88
2018-10-19T12:30:26.843Z,24.83
2018-10-19T12:38:53.250Z,25.93
2018-10-19T12:47:14.314Z,26.89
2018-10-19T12:55:35.314Z,25.59
2018-10-19T13:03:56.621Z,25.91
2018-10-19T13:12:19.706Z,27.59
2018-10-19T13:20:41.751Z,28.34
2018-10-19T13:29:02.782Z,28.92
2018-10-19T13:37:23.781Z,29.28
2018-10-19T13:45:46.859Z,29.31
2018-10-19T13:54:07.911Z,27.57
2018-10-19T14:02:28.912Z,25.48
2018-10-19T14:10:53.539Z,24.34
2018-10-19T14:27:42.907Z,22.69
2018-10-19T14:36:03.904Z,21.85
2018-10-19T14:44:24.955Z,21.70
2018-10-19T14:52:46.321Z,22.79
2018-10-19T15:01:07.773Z,22.93
2018-10-19T15:09:34.831Z,22.60
2018-10-19T15:17:56.009Z,22.21
2018-10-19T15:26:17.015Z,21.81
2018-10-19T15:34:39.128Z,21.23
2018-10-19T15:43:00.151Z,20.81
2018-10-19T15:59:48.395Z,19.98
2018-10-19T16:08:09.749Z,19.67
2018-10-19T16:24:59.462Z,19.12
2018-10-19T16:33:20.479Z,18.88
2018-10-19T16:41:42.545Z,18.67
2018-10-19T16:50:03.594Z,18.49
2018-10-19T16:58:24.644Z,18.25
2018-10-19T17:06:45.995Z,18.04
2018-10-19T17:15:07.093Z,17.65
2018-10-19T17:23:28.102Z,17.36
2018-10-19T17:31:49.238Z,16.95
2018-10-19T17:40:10.360Z,16.71
2018-10-19T17:48:31.367Z,16.45
2018-10-19T17:56:58.195Z,16.09
2018-10-19T18:05:19.206Z,15.85
2018-10-19T18:13:40.250Z,15.48
2018-10-19T18:22:01.519Z,15.17
2018-10-19T18:30:24.212Z,14.87
2018-10-19T18:38:46.323Z,14.66
2018-10-19T18:47:07.349Z,14.60
2018-10-19T18:55:28.358Z,14.41
2018-10-19T19:03:50.463Z,14.26
2018-10-19T19:12:11.603Z,14.02
2018-10-19T19:20:32.642Z,13.92
2018-10-19T19:28:53.751Z,13.83
2018-10-19T19:37:14.862Z,13.66
2018-10-19T19:45:35.891Z,13.61
2018-10-19T19:53:56.912Z,13.45
2018-10-19T20:02:17.960Z,13.30
2018-10-19T20:10:38.988Z,13.15
2018-10-19T20:19:00.026Z,13.01
2018-10-19T20:27:21.042Z,12.85
2018-10-19T20:35:43.176Z,12.70
2018-10-19T20:44:04.506Z,12.60
2018-10-19T20:52:25.852Z,12.48
2018-10-19T21:00:49.077Z,12.45
2018-10-19T21:09:10.053Z,12.46
2018-10-19T21:17:31.079Z,12.64
2018-10-19T21:25:52.073Z,12.78
2018-10-19T21:34:13.072Z,12.94
2018-10-19T21:42:34.083Z,12.83
2018-10-19T21:50:55.126Z,12.70
2018-10-19T21:59:16.205Z,12.49
2018-10-19T22:07:37.408Z,12.30
2018-10-19T22:15:58.395Z,12.13
2018-10-19T22:24:19.505Z,11.96
2018-10-19T22:32:40.586Z,11.78
2018-10-19T22:41:01.637Z,11.64
2018-10-19T22:49:22.648Z,11.42
2018-10-19T22:57:43.656Z,11.36
2018-10-19T23:06:04.688Z,11.23
2018-10-19T23:14:25.761Z,11.15
2018-10-19T23:22:46.911Z,11.06
2018-10-19T23:31:08.063Z,10.91
2018-10-19T23:39:29.363Z,10.85
2018-10-19T23:47:50.368Z,10.75
2018-10-19T23:56:11.394Z,10.67
